sensor_id;sensor_type;location;lat;lon;timestamp;temperature;humidity
68804;SHT31;55787;52.678;13.314;2023-02-02T00:00:22;4.12;88.97
68804;SHT31;55787;52.678;13.314;2023-02-02T00:02:49;4.19;89.00
68804;SHT31;55787;52.678;13.314;2023-02-02T00:05:15;4.21;88.72
68804;SHT31;55787;52.678;13.314;2023-02-02T00:07:42;4.21;88.40
68804;SHT31;55787;52.678;13.314;2023-02-02T00:10:09;4.29;87.85
68804;SHT31;55787;52.678;13.314;2023-02-02T00:12:36;4.32;88.13
68804;SHT31;55787;52.678;13.314;2023-02-02T00:15:03;4.33;87.80
68804;SHT31;55787;52.678;13.314;2023-02-02T00:17:29;4.38;88.01
68804;SHT31;55787;52.678;13.314;2023-02-02T00:19:56;4.38;87.19
68804;SHT31;55787;52.678;13.314;2023-02-02T00:22:23;4.39;87.82
68804;SHT31;55787;52.678;13.314;2023-02-02T00:24:49;4.35;87.55
68804;SHT31;55787;52.678;13.314;2023-02-02T00:27:16;4.40;87.17
68804;SHT31;55787;52.678;13.314;2023-02-02T00:29:42;4.42;87.76
68804;SHT31;55787;52.678;13.314;2023-02-02T00:32:10;4.40;88.46
68804;SHT31;55787;52.678;13.314;2023-02-02T00:34:37;4.31;88.98
68804;SHT31;55787;52.678;13.314;2023-02-02T00:37:03;4.29;89.32
68804;SHT31;55787;52.678;13.314;2023-02-02T00:39:30;4.31;89.76
68804;SHT31;55787;52.678;13.314;2023-02-02T00:41:56;4.32;90.12
68804;SHT31;55787;52.678;13.314;2023-02-02T00:44:23;4.28;90.82
68804;SHT31;55787;52.678;13.314;2023-02-02T00:47:08;4.26;90.31
68804;SHT31;55787;52.678;13.314;2023-02-02T00:49:35;4.25;90.07
68804;SHT31;55787;52.678;13.314;2023-02-02T00:52:02;4.23;89.88
68804;SHT31;55787;52.678;13.314;2023-02-02T00:54:28;4.28;89.98
68804;SHT31;55787;52.678;13.314;2023-02-02T00:56:55;4.31;90.10
68804;SHT31;55787;52.678;13.314;2023-02-02T00:59:22;4.29;90.84
68804;SHT31;55787;52.678;13.314;2023-02-02T01:01:48;4.33;91.32
68804;SHT31;55787;52.678;13.314;2023-02-02T01:04:15;4.29;91.14
68804;SHT31;55787;52.678;13.314;2023-02-02T01:06:42;4.32;90.97
68804;SHT31;55787;52.678;13.314;2023-02-02T01:09:08;4.35;90.97
68804;SHT31;55787;52.678;13.314;2023-02-02T01:11:35;4.33;91.71
68804;SHT31;55787;52.678;13.314;2023-02-02T01:14:02;4.29;91.58
68804;SHT31;55787;52.678;13.314;2023-02-02T01:16:29;4.32;92.82
68804;SHT31;55787;52.678;13.314;2023-02-02T01:18:56;4.21;93.58
68804;SHT31;55787;52.678;13.314;2023-02-02T01:21:23;4.16;93.71
68804;SHT31;55787;52.678;13.314;2023-02-02T01:23:49;4.22;94.25
68804;SHT31;55787;52.678;13.314;2023-02-02T01:26:16;4.15;94.28
68804;SHT31;55787;52.678;13.314;2023-02-02T01:28:43;4.12;93.88
68804;SHT31;55787;52.678;13.314;2023-02-02T01:31:13;4.13;93.55
68804;SHT31;55787;52.678;13.314;2023-02-02T01:33:41;4.19;94.18
68804;SHT31;55787;52.678;13.314;2023-02-02T01:36:11;4.21;93.99
68804;SHT31;55787;52.678;13.314;2023-02-02T01:38:38;4.18;94.11
68804;SHT31;55787;52.678;13.314;2023-02-02T01:41:05;4.22;93.42
68804;SHT31;55787;52.678;13.314;2023-02-02T01:46:15;4.23;94.06
68804;SHT31;55787;52.678;13.314;2023-02-02T01:48:47;4.28;93.37
68804;SHT31;55787;52.678;13.314;2023-02-02T01:51:18;4.26;94.05
68804;SHT31;55787;52.678;13.314;2023-02-02T01:53:47;4.23;93.63
68804;SHT31;55787;52.678;13.314;2023-02-02T01:56:23;4.26;93.25
68804;SHT31;55787;52.678;13.314;2023-02-02T01:58:51;4.26;93.78
68804;SHT31;55787;52.678;13.314;2023-02-02T02:01:18;4.33;93.47
68804;SHT31;55787;52.678;13.314;2023-02-02T02:03:45;4.35;93.69
68804;SHT31;55787;52.678;13.314;2023-02-02T02:06:15;4.38;93.89
68804;SHT31;55787;52.678;13.314;2023-02-02T02:08:56;4.43;93.40
68804;SHT31;55787;52.678;13.314;2023-02-02T02:11:26;4.38;93.90
68804;SHT31;55787;52.678;13.314;2023-02-02T02:13:54;4.38;94.12
68804;SHT31;55787;52.678;13.314;2023-02-02T02:32:22;4.60;92.47
68804;SHT31;55787;52.678;13.314;2023-02-02T02:35:08;4.64;92.02
68804;SHT31;55787;52.678;13.314;2023-02-02T02:37:46;4.63;92.04
68804;SHT31;55787;52.678;13.314;2023-02-02T02:40:19;4.67;90.40
68804;SHT31;55787;52.678;13.314;2023-02-02T02:43:15;4.67;90.35
68804;SHT31;55787;52.678;13.314;2023-02-02T02:45:44;4.79;90.30
68804;SHT31;55787;52.678;13.314;2023-02-02T02:48:12;4.81;90.40
68804;SHT31;55787;52.678;13.314;2023-02-02T02:50:38;4.83;90.32
68804;SHT31;55787;52.678;13.314;2023-02-02T02:53:15;4.90;89.80
68804;SHT31;55787;52.678;13.314;2023-02-02T02:55:55;4.94;89.44
68804;SHT31;55787;52.678;13.314;2023-02-02T02:58:39;4.97;89.14
68804;SHT31;55787;52.678;13.314;2023-02-02T03:04:37;5.00;89.99
68804;SHT31;55787;52.678;13.314;2023-02-02T03:07:28;4.93;90.62
68804;SHT31;55787;52.678;13.314;2023-02-02T03:09:57;4.91;91.16
68804;SHT31;55787;52.678;13.314;2023-02-02T03:12:26;4.85;90.92
68804;SHT31;55787;52.678;13.314;2023-02-02T03:14:54;4.88;91.10
68804;SHT31;55787;52.678;13.314;2023-02-02T03:17:21;4.85;90.98
68804;SHT31;55787;52.678;13.314;2023-02-02T03:19:49;4.90;90.55
68804;SHT31;55787;52.678;13.314;2023-02-02T03:22:16;4.93;89.97
68804;SHT31;55787;52.678;13.314;2023-02-02T03:24:43;4.97;89.85
68804;SHT31;55787;52.678;13.314;2023-02-02T03:27:10;5.01;89.51
68804;SHT31;55787;52.678;13.314;2023-02-02T03:29:36;5.02;89.84
68804;SHT31;55787;52.678;13.314;2023-02-02T03:32:03;5.00;90.22
68804;SHT31;55787;52.678;13.314;2023-02-02T03:34:30;5.00;90.12
68804;SHT31;55787;52.678;13.314;2023-02-02T03:36:57;4.97;90.49
68804;SHT31;55787;52.678;13.314;2023-02-02T03:39:23;4.98;90.57
68804;SHT31;55787;52.678;13.314;2023-02-02T03:41:50;4.97;90.16
68804;SHT31;55787;52.678;13.314;2023-02-02T03:44:17;4.95;90.64
68804;SHT31;55787;52.678;13.314;2023-02-02T03:46:44;4.90;90.31
68804;SHT31;55787;52.678;13.314;2023-02-02T03:49:10;4.91;90.24
68804;SHT31;55787;52.678;13.314;2023-02-02T03:51:37;4.88;90.36
68804;SHT31;55787;52.678;13.314;2023-02-02T03:54:04;4.87;91.14
68804;SHT31;55787;52.678;13.314;2023-02-02T03:56:30;4.83;91.02
68804;SHT31;55787;52.678;13.314;2023-02-02T03:58:57;4.88;91.01
68804;SHT31;55787;52.678;13.314;2023-02-02T04:01:28;4.88;90.99
68804;SHT31;55787;52.678;13.314;2023-02-02T04:03:55;4.84;90.61
68804;SHT31;55787;52.678;13.314;2023-02-02T04:06:23;4.87;90.35
68804;SHT31;55787;52.678;13.314;2023-02-02T04:08:50;4.85;89.78
68804;SHT31;55787;52.678;13.314;2023-02-02T04:11:17;4.90;89.95
68804;SHT31;55787;52.678;13.314;2023-02-02T04:13:44;4.95;89.75
68804;SHT31;55787;52.678;13.314;2023-02-02T04:16:11;4.88;90.00
68804;SHT31;55787;52.678;13.314;2023-02-02T04:18:38;4.91;89.99
68804;SHT31;55787;52.678;13.314;2023-02-02T04:21:06;4.91;89.51
68804;SHT31;55787;52.678;13.314;2023-02-02T04:23:33;4.88;89.60
68804;SHT31;55787;52.678;13.314;2023-02-02T04:26:00;4.88;89.71
68804;SHT31;55787;52.678;13.314;2023-02-02T04:28:27;4.88;89.67
68804;SHT31;55787;52.678;13.314;2023-02-02T04:30:54;4.88;89.39
68804;SHT31;55787;52.678;13.314;2023-02-02T04:33:23;4.94;89.59
68804;SHT31;55787;52.678;13.314;2023-02-02T04:35:50;4.83;88.83
68804;SHT31;55787;52.678;13.314;2023-02-02T04:38:17;4.90;89.68
68804;SHT31;55787;52.678;13.314;2023-02-02T04:40:45;4.90;89.19
68804;SHT31;55787;52.678;13.314;2023-02-02T04:43:12;4.94;89.55
68804;SHT31;55787;52.678;13.314;2023-02-02T04:45:39;4.93;88.84
68804;SHT31;55787;52.678;13.314;2023-02-02T04:48:07;4.93;88.80
68804;SHT31;55787;52.678;13.314;2023-02-02T04:50:34;4.98;88.41
68804;SHT31;55787;52.678;13.314;2023-02-02T04:53:02;4.94;87.67
68804;SHT31;55787;52.678;13.314;2023-02-02T04:55:29;4.98;88.52
68804;SHT31;55787;52.678;13.314;2023-02-02T04:57:56;5.01;87.73
68804;SHT31;55787;52.678;13.314;2023-02-02T05:00:22;5.02;88.19
68804;SHT31;55787;52.678;13.314;2023-02-02T05:02:49;5.00;87.97
68804;SHT31;55787;52.678;13.314;2023-02-02T05:05:15;5.00;88.29
68804;SHT31;55787;52.678;13.314;2023-02-02T05:07:42;4.98;87.65
68804;SHT31;55787;52.678;13.314;2023-02-02T05:10:09;5.00;87.46
68804;SHT31;55787;52.678;13.314;2023-02-02T05:12:36;5.02;87.38
68804;SHT31;55787;52.678;13.314;2023-02-02T05:15:03;4.98;87.71
68804;SHT31;55787;52.678;13.314;2023-02-02T05:17:31;4.98;87.30
68804;SHT31;55787;52.678;13.314;2023-02-02T05:19:58;4.95;87.24
68804;SHT31;55787;52.678;13.314;2023-02-02T05:22:25;4.95;87.21
68804;SHT31;55787;52.678;13.314;2023-02-02T05:24:52;4.98;86.41
68804;SHT31;55787;52.678;13.314;2023-02-02T05:27:19;5.00;86.32
68804;SHT31;55787;52.678;13.314;2023-02-02T05:29:46;4.90;85.63
68804;SHT31;55787;52.678;13.314;2023-02-02T05:32:13;4.97;85.91
68804;SHT31;55787;52.678;13.314;2023-02-02T05:34:39;4.98;85.79
68804;SHT31;55787;52.678;13.314;2023-02-02T05:37:06;4.97;85.35
68804;SHT31;55787;52.678;13.314;2023-02-02T05:39:32;4.98;85.06
68804;SHT31;55787;52.678;13.314;2023-02-02T05:41:59;4.97;85.05
68804;SHT31;55787;52.678;13.314;2023-02-02T05:44:26;4.98;85.87
68804;SHT31;55787;52.678;13.314;2023-02-02T05:46:52;4.97;85.68
68804;SHT31;55787;52.678;13.314;2023-02-02T05:49:19;4.94;85.08
68804;SHT31;55787;52.678;13.314;2023-02-02T05:51:47;4.91;84.28
68804;SHT31;55787;52.678;13.314;2023-02-02T05:54:15;4.93;84.82
68804;SHT31;55787;52.678;13.314;2023-02-02T05:56:47;4.90;84.97
68804;SHT31;55787;52.678;13.314;2023-02-02T05:59:14;4.88;85.15
68804;SHT31;55787;52.678;13.314;2023-02-02T06:01:44;4.90;84.62
68804;SHT31;55787;52.678;13.314;2023-02-02T06:04:11;4.88;85.06
68804;SHT31;55787;52.678;13.314;2023-02-02T06:06:37;4.85;84.31
68804;SHT31;55787;52.678;13.314;2023-02-02T06:09:05;4.84;84.71
68804;SHT31;55787;52.678;13.314;2023-02-02T06:11:33;4.83;84.57
68804;SHT31;55787;52.678;13.314;2023-02-02T06:14:01;4.83;83.53
68804;SHT31;55787;52.678;13.314;2023-02-02T06:16:28;4.83;84.66
68804;SHT31;55787;52.678;13.314;2023-02-02T06:18:54;4.83;84.03
68804;SHT31;55787;52.678;13.314;2023-02-02T06:21:21;4.85;84.07
68804;SHT31;55787;52.678;13.314;2023-02-02T06:23:51;4.83;83.35
68804;SHT31;55787;52.678;13.314;2023-02-02T06:26:17;4.77;83.20
68804;SHT31;55787;52.678;13.314;2023-02-02T06:28:49;4.80;83.86
68804;SHT31;55787;52.678;13.314;2023-02-02T06:31:16;4.73;83.98
68804;SHT31;55787;52.678;13.314;2023-02-02T06:33:47;4.73;84.39
68804;SHT31;55787;52.678;13.314;2023-02-02T06:36:17;4.70;82.28
68804;SHT31;55787;52.678;13.314;2023-02-02T06:38:47;4.73;82.73
68804;SHT31;55787;52.678;13.314;2023-02-02T06:41:14;4.76;83.70
68804;SHT31;55787;52.678;13.314;2023-02-02T06:43:41;4.74;83.28
68804;SHT31;55787;52.678;13.314;2023-02-02T06:46:08;4.74;83.73
68804;SHT31;55787;52.678;13.314;2023-02-02T06:48:34;4.70;83.86
68804;SHT31;55787;52.678;13.314;2023-02-02T06:51:01;4.69;83.59
68804;SHT31;55787;52.678;13.314;2023-02-02T06:53:28;4.69;83.97
68804;SHT31;55787;52.678;13.314;2023-02-02T06:55:58;4.67;83.84
68804;SHT31;55787;52.678;13.314;2023-02-02T06:58:27;4.69;83.76
68804;SHT31;55787;52.678;13.314;2023-02-02T07:00:54;4.63;83.60
68804;SHT31;55787;52.678;13.314;2023-02-02T07:03:21;4.64;83.19
68804;SHT31;55787;52.678;13.314;2023-02-02T07:05:48;4.66;83.80
68804;SHT31;55787;52.678;13.314;2023-02-02T07:08:15;4.63;83.22
68804;SHT31;55787;52.678;13.314;2023-02-02T07:10:42;4.62;83.39
68804;SHT31;55787;52.678;13.314;2023-02-02T07:13:29;4.60;83.00
68804;SHT31;55787;52.678;13.314;2023-02-02T07:15:56;4.59;83.15
68804;SHT31;55787;52.678;13.314;2023-02-02T07:18:23;4.62;83.07
68804;SHT31;55787;52.678;13.314;2023-02-02T07:20:50;4.62;83.03
68804;SHT31;55787;52.678;13.314;2023-02-02T07:23:17;4.60;82.52
68804;SHT31;55787;52.678;13.314;2023-02-02T07:25:44;4.59;82.89
68804;SHT31;55787;52.678;13.314;2023-02-02T07:28:11;4.57;82.50
68804;SHT31;55787;52.678;13.314;2023-02-02T07:30:37;4.57;82.07
68804;SHT31;55787;52.678;13.314;2023-02-02T07:33:04;4.60;81.81
68804;SHT31;55787;52.678;13.314;2023-02-02T07:35:30;4.64;82.02
68804;SHT31;55787;52.678;13.314;2023-02-02T07:37:57;4.67;81.49
68804;SHT31;55787;52.678;13.314;2023-02-02T07:40:24;4.60;80.58
68804;SHT31;55787;52.678;13.314;2023-02-02T07:42:50;4.54;80.85
68804;SHT31;55787;52.678;13.314;2023-02-02T07:45:17;4.38;81.48
68804;SHT31;55787;52.678;13.314;2023-02-02T07:47:57;4.25;81.58
68804;SHT31;55787;52.678;13.314;2023-02-02T07:50:25;4.19;81.87
68804;SHT31;55787;52.678;13.314;2023-02-02T07:52:52;4.12;82.44
68804;SHT31;55787;52.678;13.314;2023-02-02T07:55:19;4.11;82.55
68804;SHT31;55787;52.678;13.314;2023-02-02T07:57:47;4.16;82.37
68804;SHT31;55787;52.678;13.314;2023-02-02T08:00:13;4.12;82.25
68804;SHT31;55787;52.678;13.314;2023-02-02T08:02:42;4.21;82.11
68804;SHT31;55787;52.678;13.314;2023-02-02T08:05:09;4.36;82.58
68804;SHT31;55787;52.678;13.314;2023-02-02T08:07:35;4.52;82.50
68804;SHT31;55787;52.678;13.314;2023-02-02T08:10:02;4.79;81.94
68804;SHT31;55787;52.678;13.314;2023-02-02T08:12:29;4.98;81.14
68804;SHT31;55787;52.678;13.314;2023-02-02T08:14:56;5.11;81.11
68804;SHT31;55787;52.678;13.314;2023-02-02T08:17:24;5.22;81.32
68804;SHT31;55787;52.678;13.314;2023-02-02T08:19:51;5.30;81.70
68804;SHT31;55787;52.678;13.314;2023-02-02T08:22:17;5.34;82.35
68804;SHT31;55787;52.678;13.314;2023-02-02T08:24:45;5.30;82.37
68804;SHT31;55787;52.678;13.314;2023-02-02T08:27:14;5.11;82.67
68804;SHT31;55787;52.678;13.314;2023-02-02T08:29:41;5.17;83.43
68804;SHT31;55787;52.678;13.314;2023-02-02T08:32:08;5.20;84.10
68804;SHT31;55787;52.678;13.314;2023-02-02T08:34:35;5.25;84.97
68804;SHT31;55787;52.678;13.314;2023-02-02T08:37:02;5.31;84.58
68804;SHT31;55787;52.678;13.314;2023-02-02T08:39:29;5.28;84.88
68804;SHT31;55787;52.678;13.314;2023-02-02T08:41:56;5.39;85.20
68804;SHT31;55787;52.678;13.314;2023-02-02T08:44:22;5.51;84.89
68804;SHT31;55787;52.678;13.314;2023-02-02T08:46:52;5.52;84.80
68804;SHT31;55787;52.678;13.314;2023-02-02T08:49:19;5.59;84.82
68804;SHT31;55787;52.678;13.314;2023-02-02T08:51:45;5.62;84.31
68804;SHT31;55787;52.678;13.314;2023-02-02T08:54:12;5.94;84.11
68804;SHT31;55787;52.678;13.314;2023-02-02T08:56:39;6.10;83.42
68804;SHT31;55787;52.678;13.314;2023-02-02T08:59:05;6.13;83.21
68804;SHT31;55787;52.678;13.314;2023-02-02T09:01:33;5.93;83.06
68804;SHT31;55787;52.678;13.314;2023-02-02T09:04:03;5.86;83.89
68804;SHT31;55787;52.678;13.314;2023-02-02T09:08:58;5.77;83.95
68804;SHT31;55787;52.678;13.314;2023-02-02T09:11:25;5.73;84.35
68804;SHT31;55787;52.678;13.314;2023-02-02T09:13:55;5.80;83.30
68804;SHT31;55787;52.678;13.314;2023-02-02T09:16:24;6.04;83.21
68804;SHT31;55787;52.678;13.314;2023-02-02T09:18:51;5.96;82.94
68804;SHT31;55787;52.678;13.314;2023-02-02T09:21:18;6.21;82.50
68804;SHT31;55787;52.678;13.314;2023-02-02T09:23:47;6.30;81.88
68804;SHT31;55787;52.678;13.314;2023-02-02T09:26:25;6.34;81.43
68804;SHT31;55787;52.678;13.314;2023-02-02T09:28:56;6.40;81.77
68804;SHT31;55787;52.678;13.314;2023-02-02T09:31:24;6.28;81.90
68804;SHT31;55787;52.678;13.314;2023-02-02T09:33:51;6.35;82.29
68804;SHT31;55787;52.678;13.314;2023-02-02T09:36:21;6.35;81.88
68804;SHT31;55787;52.678;13.314;2023-02-02T09:38:51;6.30;81.66
68804;SHT31;55787;52.678;13.314;2023-02-02T09:52:07;7.84;76.79
68804;SHT31;55787;52.678;13.314;2023-02-02T09:54:40;7.96;74.48
68804;SHT31;55787;52.678;13.314;2023-02-02T09:57:18;7.35;76.01
68804;SHT31;55787;52.678;13.314;2023-02-02T09:59:48;7.24;75.10
68804;SHT31;55787;52.678;13.314;2023-02-02T10:02:32;7.41;75.36
68804;SHT31;55787;52.678;13.314;2023-02-02T10:05:21;8.54;70.33
68804;SHT31;55787;52.678;13.314;2023-02-02T10:07:53;9.42;67.49
68804;SHT31;55787;52.678;13.314;2023-02-02T10:10:32;8.97;66.84
68804;SHT31;55787;52.678;13.314;2023-02-02T10:15:40;10.66;63.63
68804;SHT31;55787;52.678;13.314;2023-02-02T10:20:51;10.46;61.64
68804;SHT31;55787;52.678;13.314;2023-02-02T10:23:26;10.63;61.06
68804;SHT31;55787;52.678;13.314;2023-02-02T10:26:22;9.76;63.75
68804;SHT31;55787;52.678;13.314;2023-02-02T10:31:40;8.78;65.51
68804;SHT31;55787;52.678;13.314;2023-02-02T10:37:20;8.42;67.54
68804;SHT31;55787;52.678;13.314;2023-02-02T10:40:13;8.10;67.43
68804;SHT31;55787;52.678;13.314;2023-02-02T10:45:47;7.91;68.84
68804;SHT31;55787;52.678;13.314;2023-02-02T10:48:25;7.89;68.20
68804;SHT31;55787;52.678;13.314;2023-02-02T10:50:57;7.71;67.49
68804;SHT31;55787;52.678;13.314;2023-02-02T10:53:27;7.71;66.75
68804;SHT31;55787;52.678;13.314;2023-02-02T10:58:49;7.58;68.22
68804;SHT31;55787;52.678;13.314;2023-02-02T11:01:15;7.63;69.06
68804;SHT31;55787;52.678;13.314;2023-02-02T11:03:43;7.65;69.42
68804;SHT31;55787;52.678;13.314;2023-02-02T11:06:10;7.72;70.46
68804;SHT31;55787;52.678;13.314;2023-02-02T11:08:56;7.89;69.73
68804;SHT31;55787;52.678;13.314;2023-02-02T11:11:37;7.88;70.45
68804;SHT31;55787;52.678;13.314;2023-02-02T11:16:35;7.88;68.73
68804;SHT31;55787;52.678;13.314;2023-02-02T11:21:56;7.89;69.32
68804;SHT31;55787;52.678;13.314;2023-02-02T11:26:59;7.60;69.09
68804;SHT31;55787;52.678;13.314;2023-02-02T11:35:17;7.38;70.57
68804;SHT31;55787;52.678;13.314;2023-02-02T11:37:59;7.27;70.37
68804;SHT31;55787;52.678;13.314;2023-02-02T11:40:35;7.28;69.40
68804;SHT31;55787;52.678;13.314;2023-02-02T11:43:24;7.28;69.46
68804;SHT31;55787;52.678;13.314;2023-02-02T11:48:34;7.26;71.25
68804;SHT31;55787;52.678;13.314;2023-02-02T11:51:03;7.22;73.47
68804;SHT31;55787;52.678;13.314;2023-02-02T11:53:46;7.07;73.83
68804;SHT31;55787;52.678;13.314;2023-02-02T11:56:19;7.26;74.03
68804;SHT31;55787;52.678;13.314;2023-02-02T11:58:48;7.28;74.36
68804;SHT31;55787;52.678;13.314;2023-02-02T12:03:57;7.54;73.65
68804;SHT31;55787;52.678;13.314;2023-02-02T12:06:35;7.81;73.87
68804;SHT31;55787;52.678;13.314;2023-02-02T12:09:16;8.05;73.78
68804;SHT31;55787;52.678;13.314;2023-02-02T12:28:26;7.37;75.36
68804;SHT31;55787;52.678;13.314;2023-02-02T12:31:17;7.17;75.12
68804;SHT31;55787;52.678;13.314;2023-02-02T12:34:10;7.04;75.38
68804;SHT31;55787;52.678;13.314;2023-02-02T12:37:06;7.09;75.70
68804;SHT31;55787;52.678;13.314;2023-02-02T12:42:47;7.79;72.02
68804;SHT31;55787;52.678;13.314;2023-02-02T12:45:31;7.89;71.98
68804;SHT31;55787;52.678;13.314;2023-02-02T12:53:16;8.34;69.64
68804;SHT31;55787;52.678;13.314;2023-02-02T12:55:53;8.49;69.42
68804;SHT31;55787;52.678;13.314;2023-02-02T12:58:47;8.56;68.03
68804;SHT31;55787;52.678;13.314;2023-02-02T13:04:14;8.43;67.90
68804;SHT31;55787;52.678;13.314;2023-02-02T13:12:50;8.47;68.75
68804;SHT31;55787;52.678;13.314;2023-02-02T13:15:20;7.99;68.46
68804;SHT31;55787;52.678;13.314;2023-02-02T13:17:53;7.65;65.84
68804;SHT31;55787;52.678;13.314;2023-02-02T13:20:57;7.19;65.60
68804;SHT31;55787;52.678;13.314;2023-02-02T13:23:31;6.95;65.38
68804;SHT31;55787;52.678;13.314;2023-02-02T13:28:40;6.38;66.98
68804;SHT31;55787;52.678;13.314;2023-02-02T13:31:21;6.27;68.87
68804;SHT31;55787;52.678;13.314;2023-02-02T13:36:31;6.02;69.01
68804;SHT31;55787;52.678;13.314;2023-02-02T13:39:13;6.10;69.58
68804;SHT31;55787;52.678;13.314;2023-02-02T13:41:41;5.96;69.90
68804;SHT31;55787;52.678;13.314;2023-02-02T13:44:24;5.92;69.50
68804;SHT31;55787;52.678;13.314;2023-02-02T13:46:59;6.21;69.70
68804;SHT31;55787;52.678;13.314;2023-02-02T13:49:52;6.67;69.08
68804;SHT31;55787;52.678;13.314;2023-02-02T13:58:29;7.60;65.17
68804;SHT31;55787;52.678;13.314;2023-02-02T14:01:06;7.64;66.38
68804;SHT31;55787;52.678;13.314;2023-02-02T14:03:49;7.54;65.13
68804;SHT31;55787;52.678;13.314;2023-02-02T14:06:19;7.57;64.52
68804;SHT31;55787;52.678;13.314;2023-02-02T14:09:02;7.88;62.98
68804;SHT31;55787;52.678;13.314;2023-02-02T14:11:30;8.05;62.36
68804;SHT31;55787;52.678;13.314;2023-02-02T14:14:07;8.09;61.15
68804;SHT31;55787;52.678;13.314;2023-02-02T14:16:53;8.07;59.48
68804;SHT31;55787;52.678;13.314;2023-02-02T14:22:14;7.89;59.74
68804;SHT31;55787;52.678;13.314;2023-02-02T14:24:48;7.77;59.51
68804;SHT31;55787;52.678;13.314;2023-02-02T14:34:59;6.69;61.05
68804;SHT31;55787;52.678;13.314;2023-02-02T14:37:57;6.32;62.25
68804;SHT31;55787;52.678;13.314;2023-02-02T14:40:48;6.06;63.01
68804;SHT31;55787;52.678;13.314;2023-02-02T14:43:32;5.83;64.90
68804;SHT31;55787;52.678;13.314;2023-02-02T14:48:47;5.42;66.33
68804;SHT31;55787;52.678;13.314;2023-02-02T14:51:27;5.34;66.75
68804;SHT31;55787;52.678;13.314;2023-02-02T14:54:00;5.27;66.70
68804;SHT31;55787;52.678;13.314;2023-02-02T14:56:48;5.10;67.77
68804;SHT31;55787;52.678;13.314;2023-02-02T14:59:37;5.05;68.21
68804;SHT31;55787;52.678;13.314;2023-02-02T15:02:15;4.97;67.93
68804;SHT31;55787;52.678;13.314;2023-02-02T15:04:43;4.87;68.81
68804;SHT31;55787;52.678;13.314;2023-02-02T15:09:50;4.60;70.31
68804;SHT31;55787;52.678;13.314;2023-02-02T15:12:26;4.52;70.49
68804;SHT31;55787;52.678;13.314;2023-02-02T15:27:54;4.02;70.01
68804;SHT31;55787;52.678;13.314;2023-02-02T15:30:23;3.91;70.53
68804;SHT31;55787;52.678;13.314;2023-02-02T15:32:52;3.75;70.84
68804;SHT31;55787;52.678;13.314;2023-02-02T15:35:22;3.74;70.81
68804;SHT31;55787;52.678;13.314;2023-02-02T15:37:58;3.66;71.38
68804;SHT31;55787;52.678;13.314;2023-02-02T15:40:27;3.60;71.43
68804;SHT31;55787;52.678;13.314;2023-02-02T15:42:58;3.46;71.89
68804;SHT31;55787;52.678;13.314;2023-02-02T15:47:57;3.41;71.96
68804;SHT31;55787;52.678;13.314;2023-02-02T15:50:25;3.27;72.76
68804;SHT31;55787;52.678;13.314;2023-02-02T15:52:53;3.09;73.84
68804;SHT31;55787;52.678;13.314;2023-02-02T15:57:55;2.89;73.68
68804;SHT31;55787;52.678;13.314;2023-02-02T16:03:02;2.81;74.21
68804;SHT31;55787;52.678;13.314;2023-02-02T16:07:59;2.60;75.01
68804;SHT31;55787;52.678;13.314;2023-02-02T16:10:34;2.52;75.39
68804;SHT31;55787;52.678;13.314;2023-02-02T16:13:01;2.42;75.97
68804;SHT31;55787;52.678;13.314;2023-02-02T16:15:29;2.33;76.23
68804;SHT31;55787;52.678;13.314;2023-02-02T16:17:58;2.26;76.44
68804;SHT31;55787;52.678;13.314;2023-02-02T16:20:27;2.19;77.56
68804;SHT31;55787;52.678;13.314;2023-02-02T16:22:55;2.03;78.05
68804;SHT31;55787;52.678;13.314;2023-02-02T16:25:30;1.95;78.38
68804;SHT31;55787;52.678;13.314;2023-02-02T16:27:58;1.89;78.43
68804;SHT31;55787;52.678;13.314;2023-02-02T16:30:33;1.79;79.44
68804;SHT31;55787;52.678;13.314;2023-02-02T16:35:51;1.52;81.19
68804;SHT31;55787;52.678;13.314;2023-02-02T16:38:32;1.42;81.57
68804;SHT31;55787;52.678;13.314;2023-02-02T16:43:29;1.30;81.50
68804;SHT31;55787;52.678;13.314;2023-02-02T16:45:59;1.24;82.22
68804;SHT31;55787;52.678;13.314;2023-02-02T16:48:58;1.16;82.92
68804;SHT31;55787;52.678;13.314;2023-02-02T16:51:26;1.07;83.23
68804;SHT31;55787;52.678;13.314;2023-02-02T16:54:12;1.01;83.22
68804;SHT31;55787;52.678;13.314;2023-02-02T16:56:59;0.94;83.85
68804;SHT31;55787;52.678;13.314;2023-02-02T16:59:35;0.91;84.14
68804;SHT31;55787;52.678;13.314;2023-02-02T17:02:17;0.83;83.97
68804;SHT31;55787;52.678;13.314;2023-02-02T17:04:49;0.79;83.97
68804;SHT31;55787;52.678;13.314;2023-02-02T17:07:16;0.72;84.34
68804;SHT31;55787;52.678;13.314;2023-02-02T17:09:46;0.66;84.57
68804;SHT31;55787;52.678;13.314;2023-02-02T17:15:01;0.52;85.27
68804;SHT31;55787;52.678;13.314;2023-02-02T17:17:31;0.46;85.55
68804;SHT31;55787;52.678;13.314;2023-02-02T17:19:57;0.38;86.95
68804;SHT31;55787;52.678;13.314;2023-02-02T17:22:25;0.29;86.43
68804;SHT31;55787;52.678;13.314;2023-02-02T17:24:53;0.21;86.57
68804;SHT31;55787;52.678;13.314;2023-02-02T17:27:39;0.11;86.97
68804;SHT31;55787;52.678;13.314;2023-02-02T17:30:08;0.07;86.97
68804;SHT31;55787;52.678;13.314;2023-02-02T17:32:36;-0.05;87.00
68804;SHT31;55787;52.678;13.314;2023-02-02T17:35:12;-0.09;87.23
68804;SHT31;55787;52.678;13.314;2023-02-02T17:37:41;-0.17;87.43
68804;SHT31;55787;52.678;13.314;2023-02-02T17:40:16;-0.26;87.58
68804;SHT31;55787;52.678;13.314;2023-02-02T17:42:44;-0.31;87.81
68804;SHT31;55787;52.678;13.314;2023-02-02T17:45:31;-0.40;88.03
68804;SHT31;55787;52.678;13.314;2023-02-02T17:48:00;-0.45;88.18
68804;SHT31;55787;52.678;13.314;2023-02-02T17:50:27;-0.50;88.29
68804;SHT31;55787;52.678;13.314;2023-02-02T17:52:54;-0.53;88.79
68804;SHT31;55787;52.678;13.314;2023-02-02T17:55:23;-0.57;88.96
68804;SHT31;55787;52.678;13.314;2023-02-02T17:57:51;-0.60;89.03
68804;SHT31;55787;52.678;13.314;2023-02-02T18:00:21;-0.64;89.03
68804;SHT31;55787;52.678;13.314;2023-02-02T18:02:50;-0.67;89.08
68804;SHT31;55787;52.678;13.314;2023-02-02T18:05:20;-0.71;89.20
68804;SHT31;55787;52.678;13.314;2023-02-02T18:07:47;-0.74;89.14
68804;SHT31;55787;52.678;13.314;2023-02-02T18:10:15;-0.78;89.77
68804;SHT31;55787;52.678;13.314;2023-02-02T18:12:41;-0.84;89.41
68804;SHT31;55787;52.678;13.314;2023-02-02T18:15:11;-0.84;89.49
68804;SHT31;55787;52.678;13.314;2023-02-02T18:17:40;-0.87;89.66
68804;SHT31;55787;52.678;13.314;2023-02-02T18:20:08;-0.88;89.96
68804;SHT31;55787;52.678;13.314;2023-02-02T18:22:34;-0.91;90.37
68804;SHT31;55787;52.678;13.314;2023-02-02T18:25:01;-0.91;91.42
68804;SHT31;55787;52.678;13.314;2023-02-02T18:27:29;-0.92;91.31
68804;SHT31;55787;52.678;13.314;2023-02-02T18:29:56;-0.89;91.50
68804;SHT31;55787;52.678;13.314;2023-02-02T18:32:23;-0.92;91.25
68804;SHT31;55787;52.678;13.314;2023-02-02T18:34:50;-0.98;91.20